Freeland, Maryland
Current Conditions -  °F | °C
As of 6:05 PM on Wednesday 17 Dec 2014 (Local Time) from KDMW Reporting Station
Scattered Clouds Scattered Clouds  
Wind Chill: 31°   Ceiling: Unl
Heat Index: 37°   Visibility: 10mi
Dew Point: 27°   Wind: 8mph
Humidity: 65%   Direction: 290°WNW
Pressure: 30"   Gusts: NA
Location:  39.7°N, 76.68°W
Report Text: KDMW 172305Z AUTO 29007KT 10SM SCT085 03/M03 A3000 RMK AO2
Loading
Personal Weather Stations






























Interactive Weather Map New forecast layout! Learn more

10-Day Weather Forecast

Advertisements
Track Severe Weather on mobile